Airfield :







YOU CAN JOIN US ON...

 
LOGIN :

Register | Disclaimer

   EN    FR    IT 

 









Legend :    VFR   Marginal VFR   IFR   Intensive IFR   Very Intensive IFR
Visi :
Ceiling :
>= 8 km
>= 3000ft
5 to 8 km
1000 to 3000 ft
1500m to 5 km
500 to 1000 ft
800 to 1500m
200 to 500 ft
< 800m
< 200 ft
Symbols :   Thunderstorms  Fog  Heavy snow  Heavy precipitations  Wind > 20 kt







- Airport Elevation : 489 ft


KHUL - Houlton International

CURRENT METAR :
  • 221953Z AUTO 22011G19KT 10SM CLR 26/16 A2987 RMK AO2 SLP116 T02560161

EXPIRED METARs :
  • 221853Z AUTO 21011G20KT 10SM CLR 26/16 A2989 RMK AO2 SLP122 T02610156
  • 221753Z AUTO 22010G18KT 10SM CLR 27/16 A2992 RMK AO2 SLP131 T02670156 10267 20133 58029

TAF KHUL
Valid from the 22 at 18:00 until the 23 at 18:00 UTC


221731Z 2218/2318 22011KT P6SM FEW100
FM230200 21010KT P6SM BKN070
FM230400 21010KT P6SM BKN070 WS020/24040KT
FM231000 23011KT P6SM VCSH BKN080
FM231400 23010KT P6SM VCSH BKN045
FM231700 24009KT 5SM -SHRA OVC040
No reported NOTAMs for that airfield.



MET'MAP, your aeronautical weather chart ! - Copyright ORBIFLY December 2007 - Disclaimer

ORBIFLY MET'MAP TEAM :

Programming & Development : Alexandra Zaïnal
Concept & Development : Baudouin d'Aumeries
Co-Development & Prog : Marc-Olivier Méhu
Technical & hardware support : Manuel Goepfert

Contact : metmap@orbifly.com




SOURCES & CREDITS :

   NOAA